Time;durP1;ratioP1;P1;durP2;ratioP2;P2;SDS_P1;SDS_P2;PMS_P1;PMS_P2;Temp;Humidity;BMP_temperature;BMP_pressure;BME280_temperature;BME280_humidity;BME280_pressure;Samples;Min_cycle;Max_cycle;Signal;HPM_P1;HPM_P2
2021/07/12 00:03:34;;;;;;;8.60;6.55;;;;;;;18.80;79.51;100033.19;10363046;28;19928;-69
2021/07/12 00:08:36;;;;;;;6.72;6.13;;;;;;;18.75;79.80;100021.25;10385884;28;20053;-71
2021/07/12 00:13:37;;;;;;;7.75;6.57;;;;;;;18.72;79.82;100020.63;10359001;28;20411;-71
2021/07/12 00:18:41;;;;;;;6.88;6.28;;;;;;;18.69;79.56;100018.28;10372615;28;20650;-70
2021/07/12 00:23:43;;;;;;;7.80;5.80;;;;;;;18.63;79.68;100013.63;10392332;28;20076;-71
2021/07/12 00:28:45;;;;;;;7.43;6.13;;;;;;;18.58;79.48;100010.63;10377249;28;20056;-70
2021/07/12 00:33:46;;;;;;;7.82;6.22;;;;;;;18.59;79.26;100017.69;10368927;28;20049;-71
2021/07/12 00:38:48;;;;;;;6.53;5.80;;;;;;;18.60;78.99;100011.31;10393821;28;20045;-70
2021/07/12 00:43:49;;;;;;;8.25;6.22;;;;;;;18.58;78.99;100010.63;10353804;28;20054;-70
2021/07/12 00:48:51;;;;;;;7.95;6.20;;;;;;;18.54;79.10;100004.78;10355515;28;20053;-70
2021/07/12 00:53:53;;;;;;;8.25;6.20;;;;;;;18.51;79.13;99996.19;10358918;28;20052;-71
2021/07/12 00:58:54;;;;;;;8.10;7.35;;;;;;;18.50;80.10;99991.84;10361624;28;20049;-72
2021/07/12 01:03:57;;;;;;;9.05;7.32;;;;;;;18.38;79.95;99992.25;10358113;28;20133;-70
2021/07/12 01:08:58;;;;;;;7.65;6.85;;;;;;;18.39;79.91;99987.72;10396886;28;20045;-71
2021/07/12 01:14:29;;;;;;;9.98;8.07;;;;;;;18.36;79.97;99991.63;10394870;28;20068;-70
2021/07/12 01:19:49;;;;;;;9.48;8.27;;;;;;;18.30;80.56;99988.78;10380722;28;20095;-71
2021/07/12 01:25:09;;;;;;;9.25;7.93;;;;;;;18.26;80.61;99974.03;10369519;28;20056;-73
2021/07/12 01:30:17;;;;;;;8.73;7.93;;;;;;;18.18;80.78;99969.53;10376881;28;20104;-71
2021/07/12 01:35:34;;;;;;;10.40;8.93;;;;;;;18.14;80.97;99970.91;10365802;28;20056;-72
2021/07/12 01:40:53;;;;;;;8.32;7.53;;;;;;;18.13;80.95;99972.75;10376118;28;20491;-71
2021/07/12 01:46:00;;;;;;;9.02;8.10;;;;;;;18.09;81.04;99986.75;10368106;28;20049;-69
2021/07/12 01:51:08;;;;;;;10.80;7.53;;;;;;;18.00;81.43;99972.53;10372699;28;20053;-71
2021/07/12 01:56:20;;;;;;;8.65;7.65;;;;;;;17.93;81.86;99964.31;10366825;28;20458;-71
2021/07/12 02:01:25;;;;;;;8.57;7.63;;;;;;;17.83;81.57;99953.75;10368196;28;20053;-71
2021/07/12 02:06:33;;;;;;;11.70;7.93;;;;;;;17.83;82.04;99959.16;10361863;28;20084;-70
2021/07/12 02:11:42;;;;;;;9.07;8.18;;;;;;;17.77;81.90;99948.22;10376820;28;20452;-72
2021/07/12 02:16:45;;;;;;;8.27;7.00;;;;;;;17.76;82.20;99947.41;10365882;28;20046;-71
2021/07/12 02:21:48;;;;;;;10.30;8.13;;;;;;;17.75;82.34;99940.34;10361134;28;20096;-71
2021/07/12 02:26:51;;;;;;;8.38;7.57;;;;;;;17.74;82.17;99943.22;10366879;28;20626;-70
2021/07/12 02:31:55;;;;;;;8.32;7.50;;;;;;;17.74;82.38;99932.44;10369770;28;20640;-70
2021/07/12 02:36:58;;;;;;;8.10;7.30;;;;;;;17.74;82.08;99937.81;10360949;28;20466;-71
2021/07/12 02:42:02;;;;;;;9.15;6.95;;;;;;;17.69;82.07;99935.66;10353699;28;20065;-70
2021/07/12 02:47:03;;;;;;;;;;;;;;;17.72;82.06;99931.78;10370406;28;20053;-70
2021/07/12 02:52:20;;;;;;;8.15;6.55;;;;;;;17.72;81.67;99937.19;10354019;28;19921;-70
2021/07/12 02:57:21;;;;;;;7.30;6.57;;;;;;;17.74;81.71;99935.97;10354303;28;20049;-71
2021/07/12 03:02:23;;;;;;;10.32;6.07;;;;;;;17.74;81.78;99940.53;10374108;28;20045;-71
2021/07/12 03:07:47;;;;;;;6.60;5.82;;;;;;;17.67;81.67;99917.00;10367538;28;20049;-70
2021/07/12 03:12:59;;;;;;;8.23;6.40;;;;;;;17.67;81.82;99919.69;10349878;28;20045;-70
2021/07/12 03:18:04;;;;;;;7.38;6.32;;;;;;;17.65;81.58;99902.03;10364122;28;20099;-71
2021/07/12 03:23:10;;;;;;;7.35;6.10;;;;;;;17.67;81.75;99905.41;10363031;28;20050;-71
2021/07/12 03:28:13;;;;;;;7.60;6.90;;;;;;;17.64;82.09;99906.59;10379208;28;20060;-71
2021/07/12 03:33:16;;;;;;;6.60;5.97;;;;;;;17.64;81.89;99898.53;10366576;28;20038;-71
2021/07/12 03:38:20;;;;;;;7.03;6.22;;;;;;;17.62;81.98;99897.84;10378192;28;21696;-71
2021/07/12 03:43:22;;;;;;;7.03;5.80;;;;;;;17.62;81.85;99897.84;10358445;28;20037;-70
2021/07/12 03:48:39;;;;;;;6.72;5.88;;;;;;;17.70;81.45;99890.75;10340836;28;20053;-72
2021/07/12 03:53:40;;;;;;;8.48;6.07;;;;;;;17.80;81.98;99902.94;10366426;28;20063;-71
2021/07/12 03:58:43;;;;;;;6.28;5.32;;;;;;;17.78;80.91;99901.47;10365103;28;20543;-71
2021/07/12 04:03:52;;;;;;;9.27;6.28;;;;;;;17.85;81.41;99921.28;10372592;28;20057;-69
2021/07/12 04:08:53;;;;;;;6.30;5.68;;;;;;;17.80;80.90;99911.00;10372459;28;20116;-71
2021/07/12 04:13:55;;;;;;;6.18;5.00;;;;;;;17.83;80.75;99904.44;10380049;28;20057;-71
2021/07/12 04:18:57;;;;;;;5.00;4.47;;;;;;;17.77;80.93;99889.00;10362634;28;20129;-71
2021/07/12 04:23:58;;;;;;;6.63;4.97;;;;;;;17.73;81.15;99885.00;10356221;28;20058;-71
2021/07/12 04:29:01;;;;;;;7.10;5.57;;;;;;;17.67;81.66;99873.94;10379910;28;20056;-70
2021/07/12 04:34:02;;;;;;;7.22;5.78;;;;;;;17.66;81.19;99880.34;10370548;28;20151;-71
2021/07/12 04:39:04;;;;;;;6.90;5.88;;;;;;;17.65;81.35;99886.75;10375601;28;20368;-71
2021/07/12 04:44:05;;;;;;;6.38;4.80;;;;;;;17.66;81.45;99879.50;10350548;28;20448;-70
2021/07/12 04:49:07;;;;;;;6.07;5.45;;;;;;;17.70;81.40;99888.03;10350886;28;20042;-71
2021/07/12 04:54:08;;;;;;;5.75;5.15;;;;;;;17.74;81.37;99884.00;10369036;28;20052;-71
2021/07/12 04:59:11;;;;;;;6.57;5.97;;;;;;;17.77;81.03;99878.25;10364254;28;20729;-71
2021/07/12 05:04:12;;;;;;;5.68;4.88;;;;;;;17.84;81.06;99877.34;10352751;28;20052;-70
2021/07/12 05:09:14;;;;;;;5.75;5.15;;;;;;;17.89;80.65;99876.84;10353048;28;20061;-70
2021/07/12 05:14:16;;;;;;;5.68;4.72;;;;;;;17.96;80.25;99876.97;10376743;28;20058;-70
2021/07/12 05:19:18;;;;;;;5.05;4.60;;;;;;;18.01;80.24;99875.41;10371035;28;23002;-71
2021/07/12 05:24:20;;;;;;;5.50;4.32;;;;;;;18.03;79.90;99864.44;10396620;28;20057;-70
2021/07/12 05:29:21;;;;;;;4.70;4.30;;;;;;;18.09;79.97;99860.16;10379502;28;20049;-70
2021/07/12 05:40:44;;;;;;;5.20;4.40;;;;;;;18.08;79.56;99863.91;10379829;28;20552;-71
2021/07/12 05:45:46;;;;;;;4.47;4.07;;;;;;;18.24;79.90;99858.38;10393879;28;20060;-70
2021/07/12 05:50:47;;;;;;;4.68;4.28;;;;;;;18.43;78.62;99859.66;10386679;28;20060;-71
2021/07/12 05:55:49;;;;;;;6.85;4.25;;;;;;;18.67;78.24;99855.03;10395742;28;20087;-70
2021/07/12 06:00:51;;;;;;;5.70;4.13;;;;;;;18.84;77.59;99864.63;10374230;28;20052;-71
2021/07/12 06:05:52;;;;;;;3.95;3.55;;;;;;;19.13;76.98;99856.72;10390009;28;20613;-71
2021/07/12 06:10:54;;;;;;;4.05;3.50;;;;;;;19.42;75.38;99853.91;10395162;28;20652;-69
2021/07/12 06:15:55;;;;;;;3.97;3.58;;;;;;;19.74;74.11;99848.22;10380439;28;20506;-69
2021/07/12 06:20:57;;;;;;;4.70;3.33;;;;;;;19.83;73.69;99839.00;10383697;28;20459;-71
2021/07/12 06:25:58;;;;;;;4.55;3.28;;;;;;;19.98;73.23;99838.91;10394180;28;20058;-70
2021/07/12 06:31:00;;;;;;;5.07;3.35;;;;;;;19.99;73.29;99845.97;10395066;28;20045;-72
2021/07/12 06:36:02;;;;;;;4.93;3.60;;;;;;;20.06;72.85;99836.06;10395591;28;20055;-70
2021/07/12 06:41:04;;;;;;;4.38;3.10;;;;;;;20.21;72.49;99832.44;10377627;28;20056;-71
2021/07/12 06:46:05;;;;;;;5.22;3.92;;;;;;;20.33;72.14;99825.47;10396240;28;20475;-72
2021/07/12 06:51:08;;;;;;;4.22;3.53;;;;;;;20.52;71.73;99842.81;10397474;28;20080;-71
2021/07/12 06:56:13;;;;;;;4.55;4.05;;;;;;;20.72;71.43;99845.69;10399782;28;20063;-72
2021/07/12 07:01:14;;;;;;;5.35;3.80;;;;;;;20.87;70.54;99845.56;10400107;28;20056;-72
2021/07/12 07:06:16;;;;;;;5.18;4.15;;;;;;;20.86;70.08;99834.94;10401799;28;20061;-71
2021/07/12 07:11:17;;;;;;;6.20;4.45;;;;;;;20.89;70.48;99848.06;10382668;28;20057;-71
2021/07/12 07:16:19;;;;;;;5.55;3.45;;;;;;;20.96;70.75;99835.41;10383961;28;20049;-72
2021/07/12 07:21:21;;;;;;;12.25;4.22;;;;;;;21.06;70.02;99835.00;10384168;28;20055;-71
2021/07/12 07:26:22;;;;;;;5.93;3.92;;;;;;;21.11;69.97;99846.91;10409952;28;20052;-74
2021/07/12 07:31:24;;;;;;;5.13;4.60;;;;;;;21.14;69.80;99832.97;10426438;28;20052;-73
2021/07/12 07:36:26;;;;;;;5.18;4.25;;;;;;;21.24;69.82;99829.84;10440254;28;20049;-71
2021/07/12 07:41:28;;;;;;;4.38;3.85;;;;;;;21.33;69.84;99838.63;10420779;28;20534;-72
2021/07/12 07:46:30;;;;;;;5.35;3.50;;;;;;;21.36;69.43;99825.53;10408028;28;20190;-71
2021/07/12 07:51:32;;;;;;;3.93;3.37;;;;;;;21.50;69.51;99815.59;10411904;28;20052;-72
2021/07/12 07:56:34;;;;;;;3.95;3.60;;;;;;;21.67;69.25;99820.63;10410507;28;20293;-71
2021/07/12 08:01:35;;;;;;;5.22;3.30;;;;;;;21.84;69.34;99802.94;10391132;28;20045;-71
2021/07/12 08:06:37;;;;;;;4.15;3.28;;;;;;;21.91;68.46;99799.38;10392525;28;20053;-71
2021/07/12 08:11:40;;;;;;;4.75;2.83;;;;;;;22.03;68.99;99786.84;10406428;28;20065;-74
2021/07/12 08:16:41;;;;;;;3.03;2.70;;;;;;;22.32;66.44;99784.75;10394119;28;20064;-71
2021/07/12 08:21:44;;;;;;;4.80;3.50;;;;;;;22.54;65.81;99775.31;10386798;28;20147;-72
2021/07/12 08:26:45;;;;;;;3.97;3.17;;;;;;;22.78;64.83;99773.75;10412504;28;20106;-71
2021/07/12 08:31:47;;;;;;;3.03;2.70;;;;;;;23.00;63.60;99759.88;10403941;28;20037;-72
2021/07/12 08:36:50;;;;;;;4.88;2.63;;;;;;;23.19;63.10;99758.13;10392600;28;20087;-73
2021/07/12 08:41:52;;;;;;;;;;;;;;;23.53;61.98;99745.16;10402898;28;20049;-72
2021/07/12 08:47:00;;;;;;;2.95;2.08;;;;;;;23.91;59.06;99729.81;10398419;28;19931;-71
2021/07/12 08:52:04;;;;;;;2.85;2.33;;;;;;;24.07;59.77;99714.81;10401872;28;20052;-71
2021/07/12 08:57:06;;;;;;;2.15;1.90;;;;;;;24.43;58.09;99694.09;10407047;28;20155;-71
2021/07/12 09:02:13;;;;;;;2.40;2.00;;;;;;;24.84;57.07;99697.97;10393159;28;20527;-71
2021/07/12 09:07:19;;;;;;;2.05;1.85;;;;;;;25.28;54.75;99704.03;10391827;28;20061;-72
2021/07/12 09:12:22;;;;;;;2.78;1.50;;;;;;;25.49;53.93;99688.22;10383117;28;20530;-73
2021/07/12 09:17:29;;;;;;;3.72;2.05;;;;;;;25.69;51.51;99694.16;10379492;28;20041;-71
2021/07/12 09:22:36;;;;;;;3.08;1.73;;;;;;;25.81;53.17;99693.34;10383013;28;20057;-73
2021/07/12 09:27:40;;;;;;;1.85;1.42;;;;;;;26.22;52.22;99691.53;10380188;28;20061;-72
2021/07/12 09:32:44;;;;;;;3.55;1.65;;;;;;;26.41;49.07;99684.00;10393237;28;20107;-72
2021/07/12 09:37:56;;;;;;;2.78;1.90;;;;;;;26.17;49.61;99683.25;10375109;28;20037;-72
2021/07/12 09:42:57;;;;;;;3.13;1.80;;;;;;;26.13;48.41;99665.69;10395803;28;20546;-74
2021/07/12 09:48:06;;;;;;;2.35;2.15;;;;;;;26.41;50.18;99671.19;10383370;28;20049;-73
2021/07/12 09:53:09;;;;;;;3.85;1.95;;;;;;;26.60;49.64;99665.53;10382813;28;20056;-73
2021/07/12 09:58:16;;;;;;;1.50;1.40;;;;;;;26.42;48.82;99669.28;10378585;28;20057;-73
2021/07/12 10:03:20;;;;;;;2.80;1.67;;;;;;;26.54;49.22;99661.06;10394733;28;20044;-73
2021/07/12 10:08:23;;;;;;;1.50;1.40;;;;;;;26.85;48.40;99657.03;10375957;28;20060;-72
2021/07/12 10:13:25;;;;;;;3.33;1.60;;;;;;;27.42;47.23;99647.91;10398642;28;20054;-71
2021/07/12 10:18:28;;;;;;;2.65;1.20;;;;;;;28.07;44.63;99628.31;10401834;28;20048;-73
2021/07/12 10:23:29;;;;;;;1.67;1.13;;;;;;;28.05;43.00;99614.91;10406843;28;20119;-74
2021/07/12 10:28:43;;;;;;;2.50;0.95;;;;;;;28.01;41.63;99609.13;10397786;28;20059;-74
2021/07/12 10:33:44;;;;;;;1.83;1.30;;;;;;;28.09;40.64;99599.66;10374616;28;20045;-73
2021/07/12 10:38:48;;;;;;;2.23;1.17;;;;;;;27.70;41.79;99602.41;10396031;28;20050;-73
2021/07/12 10:43:54;;;;;;;1.33;0.98;;;;;;;27.82;42.88;99600.38;10387906;28;20496;-74
2021/07/12 10:49:23;;;;;;;2.92;1.00;;;;;;;27.85;42.20;99599.88;10400962;28;20052;-73
2021/07/12 10:54:27;;;;;;;1.92;0.93;;;;;;;27.30;42.53;99596.03;10381658;28;20695;-73
2021/07/12 10:59:37;;;;;;;1.05;0.80;;;;;;;26.84;43.68;99610.88;10397541;28;20777;-72
2021/07/12 11:04:51;;;;;;;2.97;1.48;;;;;;;26.76;44.53;99603.91;10376420;28;20449;-73
2021/07/12 11:10:00;;;;;;;1.35;0.95;;;;;;;26.88;42.32;99601.13;10394536;28;20423;-72
2021/07/12 11:15:27;;;;;;;2.92;1.20;;;;;;;27.42;41.85;99600.63;10396054;28;20048;-73
2021/07/12 11:20:43;;;;;;;1.50;1.00;;;;;;;28.27;40.14;99605.84;10389343;28;20042;-73
2021/07/12 11:25:45;;;;;;;1.60;1.15;;;;;;;27.95;41.57;99601.06;10381432;28;20037;-74
2021/07/12 11:30:47;;;;;;;0.90;0.80;;;;;;;27.24;43.27;99609.88;10385033;28;20048;-74
2021/07/12 11:35:54;;;;;;;1.67;1.57;;;;;;;26.75;43.79;99619.47;10396522;28;20136;-71
2021/07/12 11:41:06;;;;;;;2.13;1.50;;;;;;;26.69;44.42;99625.06;10395652;28;20048;-72
2021/07/12 11:46:12;;;;;;;1.70;1.40;;;;;;;27.16;42.95;99613.88;10379897;28;20037;-74
2021/07/12 11:51:13;;;;;;;1.73;1.15;;;;;;;27.44;42.80;99617.59;10398329;28;20068;-73
2021/07/12 11:56:19;;;;;;;1.70;1.60;;;;;;;27.65;42.07;99626.91;10401010;28;20551;-73
2021/07/12 12:01:20;;;;;;;1.88;1.20;;;;;;;27.96;42.18;99627.34;10392811;28;20053;-73
2021/07/12 12:06:23;;;;;;;1.30;1.20;;;;;;;28.41;41.66;99630.94;10396911;28;20057;-73
2021/07/12 12:11:27;;;;;;;2.13;1.70;;;;;;;28.56;40.61;99626.41;10402208;28;20049;-72
2021/07/12 12:16:29;;;;;;;1.73;1.30;;;;;;;28.00;41.24;99623.06;10404517;28;21571;-71
2021/07/12 12:21:31;;;;;;;1.38;1.27;;;;;;;27.87;40.85;99616.00;10403481;28;20050;-72
2021/07/12 12:26:33;;;;;;;1.77;1.23;;;;;;;28.37;38.29;99617.75;10379339;28;20060;-73
2021/07/12 12:31:35;;;;;;;1.53;1.20;;;;;;;28.57;37.63;99619.88;10402883;28;20052;-73
2021/07/12 12:36:38;;;;;;;;;;;;;;;28.99;38.11;99596.47;10383958;28;20053;-72
2021/07/12 12:41:52;;;;;;;3.05;1.35;;;;;;;29.47;37.29;99598.47;10386138;28;19929;-72
2021/07/12 12:46:56;;;;;;;1.95;1.40;;;;;;;29.62;36.80;99588.41;10388587;28;20060;-71
2021/07/12 12:51:58;;;;;;;2.08;0.93;;;;;;;29.65;36.40;99584.34;10397586;28;20049;-71
2021/07/12 12:57:00;;;;;;;;;;;;;;;29.39;37.49;99583.34;10382897;28;20049;-71
2021/07/12 13:02:05;;;;;;;2.08;0.93;;;;;;;29.42;38.62;99574.59;10394809;28;20025;-71
2021/07/12 13:07:11;;;;;;;5.18;1.73;;;;;;;29.13;38.18;99571.38;10400531;28;20045;-72
2021/07/12 13:12:19;;;;;;;1.73;1.13;;;;;;;28.73;39.68;99548.84;10398133;28;20049;-71
2021/07/12 13:17:28;;;;;;;2.30;1.17;;;;;;;28.91;40.06;99520.25;10396455;28;20044;-71
2021/07/12 13:22:31;;;;;;;1.63;1.02;;;;;;;29.02;38.82;99519.25;10399457;28;20468;-72
2021/07/12 13:27:36;;;;;;;1.20;0.95;;;;;;;29.07;38.25;99504.75;10396944;28;20139;-71
2021/07/12 13:32:41;;;;;;;1.52;1.08;;;;;;;29.27;38.85;99502.16;10404539;28;20040;-71
2021/07/12 13:37:43;;;;;;;1.23;1.10;;;;;;;29.36;38.76;99515.34;10398816;28;20050;-71
2021/07/12 13:42:45;;;;;;;1.87;1.33;;;;;;;29.03;38.63;99520.06;10393427;28;20060;-71
2021/07/12 13:47:47;;;;;;;2.25;1.30;;;;;;;28.56;39.77;99516.94;10397561;28;20327;-72
2021/07/12 13:52:50;;;;;;;2.58;1.67;;;;;;;28.09;42.02;99517.59;10385906;28;21585;-71
2021/07/12 13:57:53;;;;;;;4.40;2.22;;;;;;;27.56;43.30;99503.53;10399953;28;20057;-72
2021/07/12 14:02:55;;;;;;;2.00;1.80;;;;;;;27.36;43.71;99500.53;10395783;28;20459;-71
2021/07/12 14:07:57;;;;;;;3.67;1.77;;;;;;;27.52;44.09;99492.28;10383517;28;20041;-71
2021/07/12 14:12:58;;;;;;;2.70;1.10;;;;;;;27.85;43.42;99489.66;10404774;28;20049;-72
2021/07/12 14:18:00;;;;;;;1.67;1.48;;;;;;;28.21;42.55;99481.88;10401287;28;20150;-72
2021/07/12 14:23:02;;;;;;;2.50;1.47;;;;;;;28.24;42.57;99485.97;10401623;28;20046;-72
2021/07/12 14:28:03;;;;;;;1.77;1.17;;;;;;;28.16;42.67;99479.88;10409564;28;20075;-71
2021/07/12 14:33:07;;;;;;;4.05;1.67;;;;;;;28.01;42.66;99487.94;10404838;28;20049;-71
2021/07/12 14:38:09;;;;;;;1.67;1.50;;;;;;;27.82;43.55;99476.50;10376906;28;20051;-72
2021/07/12 14:43:10;;;;;;;1.23;1.10;;;;;;;27.65;43.47;99468.38;10397226;28;20061;-70
2021/07/12 14:48:12;;;;;;;3.13;1.00;;;;;;;27.73;44.60;99470.66;10379282;28;20053;-72
2021/07/12 14:53:14;;;;;;;1.30;1.20;;;;;;;27.47;44.73;99451.25;10442398;22;20423;-68
2021/07/12 14:58:15;;;;;;;1.50;1.40;;;;;;;27.40;45.60;99456.06;10454298;28;20059;-67
2021/07/12 15:03:18;;;;;;;2.13;1.25;;;;;;;27.20;45.90;99453.03;10432888;28;20048;-67
2021/07/12 15:08:20;;;;;;;2.80;1.15;;;;;;;27.10;46.32;99468.19;10424950;28;20045;-70
2021/07/12 15:13:21;;;;;;;2.92;1.10;;;;;;;27.02;46.43;99465.88;10418972;28;20052;-69
2021/07/12 15:18:23;;;;;;;2.20;1.20;;;;;;;26.98;46.74;99464.75;10418386;28;20080;-68
2021/07/12 15:23:24;;;;;;;1.17;1.08;;;;;;;26.89;46.71;99447.13;10418317;28;20586;-68
2021/07/12 15:28:26;;;;;;;1.50;1.25;;;;;;;26.99;45.88;99450.84;10417680;28;20071;-69
2021/07/12 15:33:27;;;;;;;1.55;1.10;;;;;;;27.13;46.14;99445.84;10427614;28;20049;-69
2021/07/12 15:38:29;;;;;;;2.65;1.73;;;;;;;27.05;46.35;99446.25;10418891;28;20057;-68
2021/07/12 15:43:31;;;;;;;2.60;1.67;;;;;;;27.01;46.52;99442.41;10418624;28;20061;-71
2021/07/12 15:48:35;;;;;;;1.17;1.00;;;;;;;27.01;46.66;99439.69;10420273;28;20052;-68
2021/07/12 15:53:37;;;;;;;1.52;1.40;;;;;;;27.02;46.92;99443.22;10424453;28;20049;-71
2021/07/12 15:58:38;;;;;;;1.75;1.65;;;;;;;27.05;46.70;99438.06;10425345;28;20053;-69
2021/07/12 16:03:44;;;;;;;1.48;0.98;;;;;;;27.10;46.05;99440.88;10423960;28;20063;-68
2021/07/12 16:08:45;;;;;;;6.05;1.48;;;;;;;26.93;46.86;99429.16;10429319;28;20051;-68
2021/07/12 16:13:47;;;;;;;2.80;1.20;;;;;;;26.81;47.62;99437.47;10430113;28;20049;-69
2021/07/12 16:18:49;;;;;;;3.25;1.42;;;;;;;26.83;48.08;99427.13;10422813;28;20120;-71
2021/07/12 16:23:50;;;;;;;1.25;1.13;;;;;;;26.96;47.33;99423.19;10425679;28;20052;-70
2021/07/12 16:28:52;;;;;;;3.03;1.50;;;;;;;27.04;47.43;99416.47;10428158;28;20060;-68
2021/07/12 16:33:53;;;;;;;1.95;1.40;;;;;;;27.11;47.05;99426.16;10422056;28;20064;-71
2021/07/12 16:38:55;;;;;;;1.30;1.20;;;;;;;26.99;46.97;99401.69;10430336;28;20056;-69
2021/07/12 16:43:56;;;;;;;2.47;1.20;;;;;;;27.11;47.16;99407.03;10416653;28;20534;-68
2021/07/12 16:48:58;;;;;;;1.13;1.00;;;;;;;27.16;47.26;99423.47;10403802;28;20044;-64
2021/07/12 16:54:01;;;;;;;1.17;1.07;;;;;;;26.99;47.59;99418.09;10415551;28;20057;-69
2021/07/12 16:59:02;;;;;;;;;;;;;;;26.94;47.89;99430.84;10417108;28;20839;-68
2021/07/12 17:04:04;;;;;;;4.82;1.95;;;;;;;26.88;47.68;99415.47;10421194;28;20379;-69
2021/07/12 17:09:05;;;;;;;1.60;1.42;;;;;;;26.84;47.47;99411.56;10412823;28;20057;-70
2021/07/12 17:14:07;;;;;;;1.42;1.20;;;;;;;26.86;47.76;99403.94;10404901;28;20040;-68
2021/07/12 17:19:09;;;;;;;1.50;1.25;;;;;;;26.85;47.46;99405.84;10403114;28;20041;-69
2021/07/12 17:24:10;;;;;;;2.35;1.50;;;;;;;26.74;47.56;99410.34;10418317;28;20126;-68
2021/07/12 17:29:12;;;;;;;1.45;1.30;;;;;;;26.77;47.75;99414.50;10406190;28;20050;-69
2021/07/12 17:34:14;;;;;;;4.72;1.30;;;;;;;26.74;47.46;99410.34;10409124;28;20344;-70
2021/07/12 17:39:15;;;;;;;1.33;1.20;;;;;;;26.48;47.76;99395.44;10418102;28;20049;-67
2021/07/12 17:44:20;;;;;;;2.03;1.83;;;;;;;26.28;49.00;99395.97;10416175;28;20045;-67
2021/07/12 17:49:21;;;;;;;3.08;1.35;;;;;;;26.21;49.09;99395.28;10420094;28;20423;-67
2021/07/12 17:54:23;;;;;;;1.75;1.30;;;;;;;26.11;49.45;99388.59;10418631;28;20659;-68
2021/07/12 17:59:25;;;;;;;2.35;1.40;;;;;;;26.08;49.79;99386.38;10420428;28;20045;-68
2021/07/12 18:04:27;;;;;;;1.63;1.52;;;;;;;26.01;50.34;99374.78;10411728;28;20056;-67
2021/07/12 18:09:29;;;;;;;4.15;1.77;;;;;;;25.93;50.42;99375.19;10414705;28;20048;-68
2021/07/12 18:14:30;;;;;;;3.25;1.40;;;;;;;25.81;51.02;99374.44;10416100;28;20052;-68
2021/07/12 18:19:54;;;;;;;2.45;1.63;;;;;;;25.77;51.27;99364.00;10417135;28;20099;-69
2021/07/12 18:24:56;;;;;;;1.83;1.60;;;;;;;25.72;51.86;99361.19;10417386;28;20055;-70
2021/07/12 18:29:57;;;;;;;3.95;1.60;;;;;;;25.52;52.39;99355.34;10417738;28;20408;-69
2021/07/12 18:34:59;;;;;;;2.10;1.90;;;;;;;25.39;53.02;99356.50;10417960;28;20056;-70
2021/07/12 18:40:05;;;;;;;2.55;2.08;;;;;;;25.31;53.30;99359.59;10416732;28;20063;-68
2021/07/12 18:45:09;;;;;;;2.15;1.40;;;;;;;25.20;53.44;99372.13;10416624;28;20067;-70
2021/07/12 18:50:13;;;;;;;2.72;1.52;;;;;;;25.10;53.56;99383.66;10413626;28;20052;-68
2021/07/12 18:55:16;;;;;;;1.60;1.50;;;;;;;25.01;53.60;99393.25;10416911;28;20498;-68
2021/07/12 19:00:22;;;;;;;2.35;1.35;;;;;;;24.87;54.19;99392.69;10418538;28;20045;-68
2021/07/12 19:05:23;;;;;;;2.50;1.58;;;;;;;24.85;54.72;99383.94;10417096;28;20056;-68
2021/07/12 19:10:26;;;;;;;1.98;1.75;;;;;;;24.79;54.84;99395.78;10414307;28;20045;-68
2021/07/12 19:15:27;;;;;;;1.85;1.75;;;;;;;24.69;55.20;99380.84;10417150;28;20059;-68
2021/07/12 19:20:31;;;;;;;2.25;2.08;;;;;;;24.67;55.70;99398.50;10420542;28;20056;-68
2021/07/12 19:25:35;;;;;;;2.55;1.98;;;;;;;24.56;55.88;99412.88;10414257;28;20136;-68
2021/07/12 19:30:39;;;;;;;2.13;1.90;;;;;;;24.50;56.05;99410.06;10415116;28;20821;-69
2021/07/12 19:35:40;;;;;;;1.90;1.80;;;;;;;24.39;55.98;99397.25;10417205;28;20056;-68
2021/07/12 19:40:42;;;;;;;2.22;1.63;;;;;;;24.41;55.89;99418.78;10417959;28;20053;-68
2021/07/12 19:45:43;;;;;;;1.90;1.27;;;;;;;24.34;56.10;99427.06;10416013;28;20057;-69
2021/07/12 19:50:46;;;;;;;1.52;1.42;;;;;;;24.26;56.07;99436.41;10415294;28;20055;-69
2021/07/12 19:55:47;;;;;;;2.33;1.60;;;;;;;24.22;56.32;99451.50;10415584;28;20052;-69
2021/07/12 20:00:49;;;;;;;2.13;1.92;;;;;;;24.20;56.09;99463.66;10414931;28;20302;-69
2021/07/12 20:05:51;;;;;;;4.13;2.92;;;;;;;24.02;56.50;99445.53;10403414;28;20048;-69
2021/07/12 20:10:52;;;;;;;3.95;2.67;;;;;;;23.96;57.00;99442.69;10414242;28;20049;-69
2021/07/12 20:15:54;;;;;;;2.70;2.45;;;;;;;24.01;56.80;99455.59;10414625;28;20083;-68
2021/07/12 20:20:56;;;;;;;2.92;1.90;;;;;;;23.89;57.05;99436.53;10415981;28;20072;-68
2021/07/12 20:25:57;;;;;;;3.53;1.77;;;;;;;23.88;57.51;99440.28;10415263;28;20534;-68
2021/07/12 20:30:59;;;;;;;2.83;1.88;;;;;;;23.83;57.76;99448.28;10404487;28;20510;-69
2021/07/12 20:36:01;;;;;;;2.33;1.65;;;;;;;23.84;57.83;99460.81;10417765;28;20041;-70
2021/07/12 20:41:02;;;;;;;2.22;1.63;;;;;;;23.75;57.95;99456.75;10421502;28;20680;-71
2021/07/12 20:46:04;;;;;;;1.73;1.48;;;;;;;23.74;58.41;99455.09;10438933;28;20265;-68
2021/07/12 20:51:05;;;;;;;1.90;1.80;;;;;;;23.72;58.38;99440.91;10425858;28;20099;-69
2021/07/12 20:56:07;;;;;;;2.88;1.98;;;;;;;23.76;58.13;99447.53;10421121;28;20048;-69
2021/07/12 21:01:11;;;;;;;1.83;1.33;;;;;;;23.75;56.38;99452.16;10426153;28;20053;-69
2021/07/12 21:06:13;;;;;;;3.97;2.10;;;;;;;23.60;57.74;99440.84;10419559;28;20076;-68
2021/07/12 21:11:14;;;;;;;2.80;1.80;;;;;;;23.66;57.54;99448.09;10419533;28;20124;-68
2021/07/12 21:16:16;;;;;;;3.88;2.13;;;;;;;23.60;58.58;99455.28;10419842;28;20074;-69
2021/07/12 21:21:18;;;;;;;2.50;2.30;;;;;;;23.50;59.82;99433.25;10427125;28;20053;-69
2021/07/12 21:26:19;;;;;;;2.45;2.25;;;;;;;23.56;60.61;99453.25;10419168;28;20153;-69
2021/07/12 21:31:21;;;;;;;2.35;2.10;;;;;;;23.46;60.86;99445.63;10421575;28;20504;-69
2021/07/12 21:36:23;;;;;;;2.20;2.00;;;;;;;23.46;61.62;99453.78;10420458;28;20048;-68
2021/07/12 21:41:25;;;;;;;2.03;1.83;;;;;;;23.34;61.91;99440.13;10416277;28;20049;-69
2021/07/12 21:46:27;;;;;;;2.42;2.13;;;;;;;23.40;62.46;99460.94;10413016;28;20052;-69
2021/07/12 21:51:28;;;;;;;3.05;2.13;;;;;;;23.33;64.75;99457.50;10415410;28;20045;-69
2021/07/12 21:56:31;;;;;;;2.80;2.45;;;;;;;23.20;67.12;99469.31;10418386;28;20053;-69
2021/07/12 22:01:33;;;;;;;2.87;2.57;;;;;;;23.18;68.88;99478.72;10418122;28;20069;-69
2021/07/12 22:06:35;;;;;;;2.63;2.43;;;;;;;23.09;69.58;99479.03;10425422;28;20044;-69
2021/07/12 22:11:37;;;;;;;4.15;3.05;;;;;;;23.05;72.50;99480.50;10424461;28;20045;-69
2021/07/12 22:16:38;;;;;;;4.47;2.90;;;;;;;22.99;73.24;99488.72;10424401;28;20530;-69
2021/07/12 22:21:41;;;;;;;3.60;3.03;;;;;;;22.87;73.66;99475.88;10420145;28;20068;-69
2021/07/12 22:26:43;;;;;;;4.25;2.75;;;;;;;22.87;73.72;99478.59;10419160;28;20538;-68
2021/07/12 22:31:44;;;;;;;4.80;3.60;;;;;;;22.75;73.69;99472.25;10449556;22;20045;-73
2021/07/12 22:36:47;;;;;;;3.30;3.00;;;;;;;22.68;73.56;99463.31;10443776;28;20414;-72
2021/07/12 22:41:48;;;;;;;4.40;4.00;;;;;;;22.65;75.32;99459.16;10420658;28;20118;-74
2021/07/12 22:46:51;;;;;;;4.68;4.10;;;;;;;22.67;76.78;99461.66;10416412;28;20407;-74
2021/07/12 22:51:53;;;;;;;6.15;4.97;;;;;;;22.60;78.48;99459.84;10413726;28;20044;-73
2021/07/12 22:56:54;;;;;;;4.97;3.92;;;;;;;22.52;78.33;99449.28;10419843;28;20128;-73
2021/07/12 23:01:55;;;;;;;3.97;3.67;;;;;;;22.51;77.12;99441.38;10422782;28;20049;-74
2021/07/12 23:06:58;;;;;;;4.57;4.23;;;;;;;22.47;75.48;99430.13;10414755;28;20055;-73
2021/07/12 23:12:00;;;;;;;4.80;3.30;;;;;;;22.46;76.47;99433.91;10412573;28;20102;-74
2021/07/12 23:17:01;;;;;;;4.00;3.70;;;;;;;22.39;77.91;99438.53;10422595;28;20458;-73
2021/07/12 23:22:03;;;;;;;3.72;3.42;;;;;;;22.37;78.37;99448.78;10428921;28;20045;-74
2021/07/12 23:27:05;;;;;;;4.90;4.43;;;;;;;22.32;79.50;99448.59;10429224;28;20102;-74
2021/07/12 23:32:06;;;;;;;4.25;3.92;;;;;;;22.31;79.46;99446.91;10419668;28;20049;-74
2021/07/12 23:37:08;;;;;;;4.40;4.00;;;;;;;22.17;80.37;99438.88;10421237;28;20416;-73
2021/07/12 23:42:09;;;;;;;4.82;3.80;;;;;;;22.17;80.62;99432.63;10414872;28;21539;-73